Thompson Airport
CYTH : now visible

Aeroporto :











RITROVATECI SU...

 
LOGIN :

Iscrizione | Disclaimer

   EN    FR    IT 

 









Sommario :    VFR   VFR Marginale   IFR   IFR Intensivo   IFR Molto Intensivo
Visibilità : 
Base nubi : 
>= 8 km
>= 3000ft
5 / 8 km
1000 / 3000 ft
1500m / 5 km
500 / 1000 ft
800 / 1500m
200 / 500 ft
< 800m
< 200 ft
Simboli :   Temporali  Nebbia  Neve Forte  Precipitazioni Forti  Vento > 20 kt






- Altitudine del aeroporto : 729 ft
- Codice IATA : YTH


CYTH - Thompson

ULTIMO METAR :
  • 070100Z 32005KT 15SM FEW020 M15/M17 A2994 RMK SC2 SLP165

METARs OBSOLETI :
  • 070000Z 30003KT 15SM -SN BKN021 M13/M15 A2993 RMK SC6 SLP164
  • 062300Z 29005KT 8SM -SN OVC020 M12/M14 A2992 RMK SC8 SLP162

TAF TAF CYTH
Valido dal 07 a 01 ore il 07 a 13 ore UTC


070038Z 0701/0713 VRB03KT P6SM SCT015
TEMPO 0701/0704 BKN015
FM070400 VRB03KT P6SM BKN015
TEMPO 0704/0707 BKN008
FM070700 VRB03KT 5SM -SN OVC015
TEMPO 0707/0713 2SM -SN OVC008 RMK NXT FCST BY 070700Z



MetMap, La meteo Aeronautica in un colpo d'occhio ! - Copyright ORBIFLY Dicembre 2007 - Disclaimer

ORBIFLY MET'MAP TEAM :

Programmazione e sviluppo : Alexandra Zaïnal
Concezione : Baudouin d'Aumeries
Aiuto per la programmazione : Marc-Olivier Méhu
Supporto tecnico e logistico : Manuel Goepfert
Aiuto per la traduzione : Arnaldo La Scala

Contatto : metmap@orbifly.com




FONTI E CREDITI :

   NOAA       Earth
Advisory